createdAt,value
2023-04-03T00:03:11.239Z,2.70
2023-04-03T00:07:28.662Z,2.60
2023-04-03T00:11:46.827Z,2.60
2023-04-03T00:16:04.378Z,2.50
2023-04-03T00:20:22.000Z,2.40
2023-04-03T00:24:39.367Z,2.50
2023-04-03T00:28:57.173Z,2.40
2023-04-03T00:33:14.832Z,2.40
2023-04-03T00:37:32.264Z,2.30
2023-04-03T00:41:49.774Z,2.30
2023-04-03T00:46:07.175Z,2.30
2023-04-03T00:50:24.569Z,2.10
2023-04-03T00:54:43.497Z,2.20
2023-04-03T00:59:04.926Z,2.10
2023-04-03T01:03:22.697Z,2.10
2023-04-03T01:07:40.826Z,2.00
2023-04-03T01:12:22.708Z,2.10
2023-04-03T01:16:40.708Z,2.00
2023-04-03T01:21:28.543Z,1.90
2023-04-03T01:25:51.303Z,1.90
2023-04-03T01:30:09.247Z,1.90
2023-04-03T01:34:27.509Z,1.90
2023-04-03T01:38:44.808Z,1.90
2023-04-03T01:43:01.953Z,1.80
2023-04-03T01:47:19.488Z,1.80
2023-04-03T01:51:37.121Z,1.80
2023-04-03T01:55:54.463Z,1.80
2023-04-03T02:00:12.373Z,1.70
2023-04-03T02:04:29.758Z,1.70
2023-04-03T02:08:47.039Z,1.60
2023-04-03T02:13:04.583Z,1.60
2023-04-03T02:17:22.072Z,1.60
2023-04-03T02:21:41.119Z,1.50
2023-04-03T02:26:13.604Z,1.50
2023-04-03T02:30:30.808Z,1.40
2023-04-03T02:34:48.069Z,1.40
2023-04-03T02:39:05.661Z,1.30
2023-04-03T02:43:23.027Z,1.20
2023-04-03T02:47:40.647Z,1.10
2023-04-03T02:51:58.068Z,1.00
2023-04-03T02:56:15.505Z,0.90
2023-04-03T03:00:33.394Z,1.00
2023-04-03T03:04:51.846Z,0.90
2023-04-03T03:09:09.305Z,0.90
2023-04-03T03:13:26.871Z,0.90
2023-04-03T03:17:44.582Z,0.90
2023-04-03T03:22:01.967Z,0.90
2023-04-03T03:26:19.262Z,0.90
2023-04-03T03:30:36.497Z,0.80
2023-04-03T03:34:53.914Z,0.90
2023-04-03T03:39:11.309Z,0.80
2023-04-03T03:43:28.872Z,0.80
2023-04-03T03:47:46.835Z,0.60
2023-04-03T03:52:04.307Z,0.60
2023-04-03T03:56:21.535Z,0.70
2023-04-03T04:00:39.143Z,0.70
2023-04-03T04:04:56.369Z,0.50
2023-04-03T04:09:14.834Z,0.50
2023-04-03T04:13:32.108Z,0.40
2023-04-03T04:17:49.780Z,0.20
2023-04-03T04:22:07.442Z,0.20
2023-04-03T04:26:25.402Z,0.20
2023-04-03T04:30:43.184Z,0.10
2023-04-03T04:35:01.453Z,0.00
2023-04-03T04:39:18.775Z,-0.10
2023-04-03T04:43:36.122Z,-0.10
2023-04-03T04:47:55.787Z,-0.20
2023-04-03T04:52:13.013Z,-0.30
2023-04-03T04:56:30.266Z,-0.30
2023-04-03T05:00:47.598Z,-0.30
2023-04-03T05:05:05.483Z,-0.40
2023-04-03T05:09:23.256Z,-0.40
2023-04-03T05:13:40.805Z,-0.50
2023-04-03T05:17:58.142Z,-0.50
2023-04-03T05:22:16.096Z,-0.50
2023-04-03T05:26:33.443Z,-0.50
2023-04-03T05:30:57.597Z,-0.50
2023-04-03T05:35:14.893Z,-0.50
2023-04-03T05:39:32.877Z,-0.50
2023-04-03T05:43:50.473Z,-0.50
2023-04-03T05:48:07.772Z,-0.50
2023-04-03T05:52:28.911Z,-0.40
2023-04-03T05:56:46.316Z,-0.30
2023-04-03T06:01:03.788Z,-0.30
2023-04-03T06:05:21.235Z,-0.30
2023-04-03T06:09:38.614Z,-0.20
2023-04-03T06:13:56.609Z,-0.20
2023-04-03T06:18:13.910Z,-0.10
2023-04-03T06:22:31.852Z,0.20
2023-04-03T06:26:49.883Z,0.50
2023-04-03T06:31:07.168Z,0.60
2023-04-03T06:35:24.795Z,0.80
2023-04-03T06:39:42.939Z,0.70
2023-04-03T06:44:00.301Z,0.80
2023-04-03T06:48:17.594Z,0.80
2023-04-03T06:52:34.784Z,0.60
2023-04-03T06:56:52.059Z,0.70
2023-04-03T07:01:10.881Z,0.80
2023-04-03T07:05:28.435Z,1.00
2023-04-03T07:09:47.745Z,1.20
2023-04-03T07:14:05.430Z,1.30
2023-04-03T07:18:23.507Z,1.20
2023-04-03T07:22:40.989Z,1.40
2023-04-03T07:26:58.275Z,1.40
2023-04-03T07:31:18.465Z,1.60
2023-04-03T07:35:36.137Z,1.70
2023-04-03T07:39:53.649Z,1.60
2023-04-03T07:44:11.305Z,1.80
2023-04-03T07:48:28.626Z,1.70
2023-04-03T07:52:46.632Z,1.80
2023-04-03T07:57:04.246Z,2.10
2023-04-03T08:01:21.737Z,2.00
2023-04-03T08:05:40.992Z,2.00
2023-04-03T08:09:58.195Z,2.30
2023-04-03T08:14:18.134Z,2.40
2023-04-03T08:18:35.543Z,1.80
2023-04-03T08:22:52.792Z,2.30
2023-04-03T08:27:10.059Z,2.40
2023-04-03T08:31:27.585Z,2.60
2023-04-03T08:35:45.128Z,3.10
2023-04-03T08:40:02.681Z,3.20
2023-04-03T08:44:43.135Z,2.90
2023-04-03T08:49:01.125Z,2.80
2023-04-03T08:53:33.614Z,2.50
2023-04-03T08:57:58.515Z,2.10
2023-04-03T09:02:41.635Z,2.10
2023-04-03T09:07:07.056Z,1.90
2023-04-03T09:11:35.360Z,2.20
2023-04-03T09:15:56.193Z,2.40
2023-04-03T09:20:38.824Z,2.90
2023-04-03T09:25:21.119Z,3.00
2023-04-03T09:29:46.993Z,3.10
2023-04-03T09:34:10.814Z,3.40
2023-04-03T09:38:28.557Z,3.70
2023-04-03T09:42:52.007Z,3.70
2023-04-03T09:47:34.874Z,3.20
2023-04-03T09:51:53.104Z,3.30
2023-04-03T09:56:16.603Z,4.20
2023-04-03T10:00:39.704Z,5.50
2023-04-03T10:05:08.979Z,6.70
2023-04-03T10:09:33.918Z,6.50
2023-04-03T10:13:53.221Z,6.30
2023-04-03T10:18:24.668Z,7.30
2023-04-03T10:22:57.202Z,6.50
2023-04-03T10:27:39.282Z,5.00
2023-04-03T10:32:17.721Z,4.80
2023-04-03T10:36:50.351Z,4.20
2023-04-03T10:41:21.691Z,4.40
2023-04-03T10:46:03.564Z,4.60
2023-04-03T10:50:42.393Z,4.40
2023-04-03T10:55:11.696Z,4.50
2023-04-03T10:59:49.248Z,5.40
2023-04-03T11:04:08.895Z,5.60
2023-04-03T11:08:47.600Z,5.40
2023-04-03T11:13:35.426Z,6.90
2023-04-03T11:18:02.005Z,6.30
2023-04-03T11:22:28.599Z,6.20
2023-04-03T11:26:46.481Z,7.80
2023-04-03T11:31:09.153Z,7.80
2023-04-03T11:35:28.065Z,7.40
2023-04-03T11:39:58.653Z,6.10
2023-04-03T11:44:32.577Z,7.30
2023-04-03T11:48:53.134Z,8.20
2023-04-03T11:53:13.118Z,8.40
2023-04-03T11:57:48.247Z,7.70
2023-04-03T12:02:51.123Z,6.20
2023-04-03T12:07:20.002Z,5.60
2023-04-03T12:11:37.630Z,5.20
2023-04-03T12:15:55.358Z,5.30
2023-04-03T12:20:49.616Z,6.60
2023-04-03T12:26:02.186Z,6.60
2023-04-03T12:30:31.206Z,6.10
2023-04-03T12:35:10.306Z,7.90
2023-04-03T12:39:52.154Z,6.80
2023-04-03T12:44:41.073Z,7.90
2023-04-03T12:49:00.674Z,6.80
2023-04-03T12:53:28.755Z,6.80
2023-04-03T12:57:46.761Z,8.30
2023-04-03T13:02:04.226Z,7.40
2023-04-03T13:06:31.338Z,6.80
2023-04-03T13:10:59.073Z,7.20
2023-04-03T13:15:23.910Z,6.90
2023-04-03T13:19:42.987Z,6.80
2023-04-03T13:24:13.751Z,8.50
2023-04-03T13:28:34.140Z,7.60
2023-04-03T13:32:51.577Z,7.10
2023-04-03T13:37:30.586Z,6.80
2023-04-03T13:41:51.156Z,6.10
2023-04-03T13:46:11.610Z,5.90
2023-04-03T13:50:30.336Z,5.70
2023-04-03T13:54:48.368Z,5.90
2023-04-03T13:59:33.708Z,7.90
2023-04-03T14:03:56.398Z,6.80
2023-04-03T14:08:13.798Z,6.30
2023-04-03T14:12:38.195Z,6.40
2023-04-03T14:16:59.287Z,6.90
2023-04-03T14:21:18.481Z,6.20
2023-04-03T14:25:36.401Z,6.80
2023-04-03T14:29:57.033Z,6.70
2023-04-03T14:34:15.914Z,6.20
2023-04-03T14:38:33.251Z,6.70
2023-04-03T14:42:51.430Z,7.90
2023-04-03T14:47:27.442Z,7.50
2023-04-03T14:51:48.285Z,6.80
2023-04-03T14:56:16.709Z,6.20
2023-04-03T15:00:33.870Z,6.00
2023-04-03T15:04:52.227Z,6.00
2023-04-03T15:09:35.655Z,6.10
2023-04-03T15:13:52.896Z,6.10
2023-04-03T15:18:21.444Z,6.20
2023-04-03T15:22:38.713Z,6.10
2023-04-03T15:26:56.194Z,5.90
2023-04-03T15:31:14.094Z,5.40
2023-04-03T15:35:31.580Z,5.30
2023-04-03T15:39:50.467Z,5.30
2023-04-03T15:44:07.797Z,5.00
2023-04-03T15:48:25.288Z,4.90
2023-04-03T15:52:42.758Z,4.80
2023-04-03T15:57:00.325Z,4.90
2023-04-03T16:01:17.906Z,4.70
2023-04-03T16:05:37.517Z,4.50
2023-04-03T16:09:54.772Z,4.50
2023-04-03T16:14:12.732Z,4.70
2023-04-03T16:18:30.784Z,4.60
2023-04-03T16:22:48.708Z,4.70
2023-04-03T16:27:06.425Z,4.50
2023-04-03T16:31:26.177Z,4.30
2023-04-03T16:35:44.711Z,4.30
2023-04-03T16:40:01.938Z,4.00
2023-04-03T16:44:19.337Z,4.20
2023-04-03T16:48:36.608Z,3.80
2023-04-03T16:52:55.712Z,3.90
2023-04-03T16:57:13.068Z,3.90
2023-04-03T17:01:30.829Z,3.70
2023-04-03T17:05:49.007Z,3.70
2023-04-03T17:10:07.153Z,3.70
2023-04-03T17:14:24.897Z,3.70
2023-04-03T17:18:43.235Z,3.60
2023-04-03T17:23:02.460Z,3.40
2023-04-03T17:27:20.269Z,3.30
2023-04-03T17:31:37.827Z,3.40
2023-04-03T17:35:58.356Z,3.40
2023-04-03T17:40:17.802Z,3.40
2023-04-03T17:44:34.989Z,3.30
2023-04-03T17:48:52.987Z,3.20
2023-04-03T17:53:11.066Z,3.20
2023-04-03T17:57:31.530Z,3.10
2023-04-03T18:01:48.922Z,3.10
2023-04-03T18:06:11.046Z,3.20
2023-04-03T18:10:28.735Z,3.10
2023-04-03T18:14:46.469Z,3.10
2023-04-03T18:19:17.702Z,3.20
2023-04-03T18:23:43.175Z,3.20
2023-04-03T18:28:06.258Z,3.10
2023-04-03T18:32:24.195Z,3.00
2023-04-03T18:36:41.995Z,3.10
2023-04-03T18:41:02.013Z,2.90
2023-04-03T18:45:23.466Z,2.90
2023-04-03T18:49:42.503Z,2.90
2023-04-03T18:54:00.008Z,2.80
2023-04-03T18:58:17.236Z,2.80
2023-04-03T19:02:37.017Z,2.80
2023-04-03T19:06:54.771Z,2.80
2023-04-03T19:11:12.000Z,2.80
2023-04-03T19:15:29.541Z,2.70
2023-04-03T19:19:46.918Z,2.70
2023-04-03T19:24:04.432Z,2.70
2023-04-03T19:28:21.757Z,2.70
2023-04-03T19:32:39.194Z,2.60
2023-04-03T19:36:56.627Z,2.60
2023-04-03T19:41:17.610Z,2.70
2023-04-03T19:45:34.909Z,2.50
2023-04-03T19:49:52.274Z,2.50
2023-04-03T19:54:09.497Z,2.60
2023-04-03T19:58:30.102Z,2.60
2023-04-03T20:02:47.738Z,2.60
2023-04-03T20:07:05.312Z,2.50
2023-04-03T20:11:23.156Z,2.30
2023-04-03T20:15:42.028Z,2.30
2023-04-03T20:20:01.437Z,2.30
2023-04-03T20:24:18.715Z,2.30
2023-04-03T20:28:38.169Z,2.40
2023-04-03T20:32:56.140Z,2.40
2023-04-03T20:37:14.410Z,2.50
2023-04-03T20:41:35.425Z,2.50
2023-04-03T20:45:52.730Z,2.40
2023-04-03T20:50:10.483Z,2.30
2023-04-03T20:54:28.046Z,2.20
2023-04-03T20:58:46.125Z,2.20
2023-04-03T21:03:03.986Z,2.20
2023-04-03T21:07:59.727Z,2.10
2023-04-03T21:12:56.893Z,2.10
2023-04-03T21:17:14.013Z,2.10
2023-04-03T21:21:37.278Z,2.00
2023-04-03T21:25:54.922Z,1.90
2023-04-03T21:30:13.204Z,1.80
2023-04-03T21:34:31.175Z,1.80
2023-04-03T21:38:48.305Z,1.80
2023-04-03T21:43:05.575Z,1.90
2023-04-03T21:47:23.897Z,2.00
2023-04-03T21:51:41.924Z,1.80
2023-04-03T21:56:00.246Z,1.70
2023-04-03T22:00:18.970Z,1.60
2023-04-03T22:04:36.464Z,1.70
2023-04-03T22:08:53.682Z,1.70
2023-04-03T22:13:11.041Z,1.90
2023-04-03T22:17:31.148Z,2.10
2023-04-03T22:21:48.605Z,2.00
2023-04-03T22:26:08.382Z,1.80
2023-04-03T22:30:25.952Z,1.80
2023-04-03T22:34:43.096Z,1.80
2023-04-03T22:39:00.599Z,1.70
2023-04-03T22:43:17.750Z,1.80
2023-04-03T22:47:34.983Z,1.70
2023-04-03T22:51:52.226Z,1.80
2023-04-03T22:56:10.827Z,1.70
2023-04-03T23:00:28.312Z,1.80
2023-04-03T23:04:46.497Z,1.90
2023-04-03T23:09:03.828Z,1.90
2023-04-03T23:13:21.168Z,1.80
2023-04-03T23:17:38.621Z,1.80
2023-04-03T23:21:55.857Z,1.80
2023-04-03T23:26:13.269Z,1.90
2023-04-03T23:30:30.626Z,1.80
2023-04-03T23:34:47.780Z,1.70
2023-04-03T23:39:05.024Z,1.70
2023-04-03T23:43:22.630Z,1.80
2023-04-03T23:47:39.897Z,1.70
2023-04-03T23:51:57.541Z,1.80
2023-04-03T23:56:14.790Z,1.90
